NKHO2: Little Washita River Nr Ninnek

Data processed at Wed May 22 2019 23:50


All information presented herein is the property of the government of the United States of America and may be revised or deleted at any time without prior notice.
Dissemination of this information without the expressed written consent of the Public Affairs Office, Tulsa District U.S. Army Corps of Engineers is strictly prohibited.
These data are gathered electronically and, as presented, have not undergone any form of quality control. These data are not guaranteed to be valid or correct.
Go to home page.
Go to station list.
Go to home page.

Upstream stations:

Downstream station:
Previous Day
Next Day
Current Day
    
SHEF ID:       NKHO2     Little Washita River East of Nin
STATION TYPE:  
Regulating: Stage =    15.00, Flow =     2623

                STAGE  STAGE(2)  RIV-FLOW  BAT-LOAD
                   ft        ft       cfs      volt
              Ccp-Rev   Ccp-Rev   Ccp-Rev   Ccp-Rev
(US/Central)
05/22 00:00     10.95      ----      1001     12.89
05/22 01:00     10.84      ----       961     12.81
05/22 02:00     10.72      ----       919     12.81
05/22 03:00     10.60      ----       877     12.81
05/22 04:00     10.51      ----       847     12.81
05/22 05:00     10.42      ----       816     12.81
05/22 06:00     10.32      ----       784     12.73
05/22 07:00     10.22      ----       749     12.73
05/22 08:00     10.17      ----       731      ----
05/22 09:00     10.05      ----       690     12.97
05/22 10:00      9.98      ----       667     13.44
05/22 11:00      9.90      ----       641     13.37
05/22 12:00      9.83      ----       618     13.44
05/22 13:00      9.76      ----       596     13.44
05/22 14:00      9.70      ----       578     13.37
05/22 15:00      9.62      ----       553     13.29
05/22 16:00      9.58      ----       541     13.21
05/22 17:00      9.52      ----       524      ----
05/22 18:00      9.48      ----       512     13.21
05/22 19:00      9.43      ----       498     13.13
05/22 20:00      9.35      ----       476     13.05
05/22 21:00      9.34      ----       473     12.97
05/22 22:00      9.26      ----       452     12.89
05/22 23:00      9.25      ----       450     12.89